Time;durP1;ratioP1;P1;durP2;ratioP2;P2;SDS_P1;SDS_P2;PMS_P1;PMS_P2;Temp;Humidity;BMP_temperature;BMP_pressure;BME280_temperature;BME280_humidity;BME280_pressure;Samples;Min_cycle;Max_cycle;Signal;HPM_P1;HPM_P2
2023/12/29 00:01:30;;;;;;;0.98;0.70;;;;;;;;;;5022267;28;20026;-79
2023/12/29 00:03:56;;;;;;;0.75;0.65;;;;;;;;;;5037257;28;20105;-78
2023/12/29 00:06:22;;;;;;;0.73;0.65;;;;;;;;;;5030884;28;20043;-79
2023/12/29 00:08:48;;;;;;;0.60;0.60;;;;;;;;;;5034173;28;20026;-78
2023/12/29 00:11:18;;;;;;;0.60;0.60;;;;;;;;;;5034387;28;20060;-77
2023/12/29 00:13:44;;;;;;;0.75;0.60;;;;;;;;;;5041062;28;20033;-78
2023/12/29 00:16:10;;;;;;;1.42;0.77;;;;;;;;;;5032807;28;20051;-78
2023/12/29 00:18:37;;;;;;;1.02;0.40;;;;;;;;;;5027916;28;20108;-77
2023/12/29 00:21:04;;;;;;;0.70;0.60;;;;;;;;;;5032886;28;20032;-77
2023/12/29 00:23:30;;;;;;;1.17;0.50;;;;;;;;;;5029910;28;20028;-78
2023/12/29 00:25:56;;;;;;;0.60;0.60;;;;;;;;;;5024682;28;20471;-78
2023/12/29 00:28:22;;;;;;;0.80;0.60;;;;;;;;;;5029401;28;20378;-78
2023/12/29 00:30:48;;;;;;;0.40;0.40;;;;;;;;;;5047285;28;20017;-77
2023/12/29 00:33:14;;;;;;;0.50;0.50;;;;;;;;;;5039215;28;20550;-78
2023/12/29 00:35:40;;;;;;;0.40;0.40;;;;;;;;;;5043027;28;20025;-78
2023/12/29 00:38:06;;;;;;;0.57;0.57;;;;;;;;;;5046384;28;20030;-79
2023/12/29 00:40:33;;;;;;;0.60;0.60;;;;;;;;;;5041672;28;20480;-78
2023/12/29 00:43:00;;;;;;;0.60;0.55;;;;;;;;;;5031782;28;20100;-78
2023/12/29 00:45:29;;;;;;;0.70;0.50;;;;;;;;;;5035483;28;20026;-77
2023/12/29 00:47:55;;;;;;;1.27;0.68;;;;;;;;;;5023192;28;20071;-78
2023/12/29 00:50:21;;;;;;;1.35;0.50;;;;;;;;;;5030259;28;20498;-78
2023/12/29 00:52:47;;;;;;;0.73;0.60;;;;;;;;;;5032144;28;20034;-78
2023/12/29 00:55:14;;;;;;;1.02;0.75;;;;;;;;;;5038274;28;20033;-78
2023/12/29 00:57:40;;;;;;;0.55;0.55;;;;;;;;;;5039056;28;20037;-77
2023/12/29 01:00:07;;;;;;;0.80;0.70;;;;;;;;;;5032434;28;20022;-78
2023/12/29 01:02:33;;;;;;;0.70;0.70;;;;;;;;;;5036357;28;20062;-78
2023/12/29 01:04:59;;;;;;;0.80;0.77;;;;;;;;;;5034981;28;20026;-79
2023/12/29 01:07:28;;;;;;;1.50;0.80;;;;;;;;;;5038031;28;20037;-79
2023/12/29 01:09:54;;;;;;;0.65;0.60;;;;;;;;;;5037894;28;20026;-78
2023/12/29 01:12:20;;;;;;;0.80;0.63;;;;;;;;;;5033634;28;20112;-78
2023/12/29 01:14:46;;;;;;;0.88;0.80;;;;;;;;;;5028201;28;20048;-77
2023/12/29 01:17:12;;;;;;;0.75;0.65;;;;;;;;;;5040009;28;20623;-78
2023/12/29 01:19:38;;;;;;;0.77;0.77;;;;;;;;;;5030407;28;20037;-78
2023/12/29 01:22:04;;;;;;;0.60;0.60;;;;;;;;;;5030234;28;20036;-79
2023/12/29 01:24:31;;;;;;;0.80;0.55;;;;;;;;;;5032963;28;20026;-79
2023/12/29 01:26:57;;;;;;;1.30;0.60;;;;;;;;;;5039537;28;20029;-78
2023/12/29 01:29:23;;;;;;;0.75;0.60;;;;;;;;;;5028030;28;20036;-79
2023/12/29 01:31:49;;;;;;;0.57;0.50;;;;;;;;;;5039391;28;20030;-80
2023/12/29 01:34:15;;;;;;;1.20;0.80;;;;;;;;;;5032845;28;20045;-78
2023/12/29 01:36:41;;;;;;;1.40;0.80;;;;;;;;;;5038727;28;20026;-78
2023/12/29 01:39:08;;;;;;;0.90;0.50;;;;;;;;;;5036007;28;20030;-77
2023/12/29 01:41:34;;;;;;;0.63;0.63;;;;;;;;;;5034520;28;20026;-77
2023/12/29 01:44:00;;;;;;;1.02;0.88;;;;;;;;;;5043790;28;20021;-78
2023/12/29 01:46:27;;;;;;;1.08;0.88;;;;;;;;;;5034099;28;20034;-78
2023/12/29 01:48:53;;;;;;;1.05;0.60;;;;;;;;;;5031812;28;20033;-79
2023/12/29 01:51:21;;;;;;;0.70;0.70;;;;;;;;;;5032414;28;20055;-77
2023/12/29 01:53:47;;;;;;;2.05;0.55;;;;;;;;;;5035807;28;20091;-78
2023/12/29 01:56:14;;;;;;;0.80;0.80;;;;;;;;;;5031441;28;20026;-78
2023/12/29 01:58:40;;;;;;;1.50;0.90;;;;;;;;;;5030499;28;20030;-78
2023/12/29 02:01:07;;;;;;;1.20;0.60;;;;;;;;;;5030507;28;20108;-77
2023/12/29 02:03:34;;;;;;;1.00;0.70;;;;;;;;;;5038173;28;20104;-78
2023/12/29 02:06:00;;;;;;;1.05;0.65;;;;;;;;;;5041990;28;20105;-78
2023/12/29 02:08:27;;;;;;;1.15;0.70;;;;;;;;;;5034982;28;20029;-77
2023/12/29 02:10:53;;;;;;;0.63;0.60;;;;;;;;;;5042970;28;20018;-78
2023/12/29 02:13:19;;;;;;;1.13;0.60;;;;;;;;;;5025769;28;20305;-78
2023/12/29 02:15:46;;;;;;;0.52;0.52;;;;;;;;;;5025096;28;20033;-79
2023/12/29 02:18:15;;;;;;;0.50;0.50;;;;;;;;;;5018870;28;20409;-78
2023/12/29 02:20:41;;;;;;;0.60;0.60;;;;;;;;;;5038958;28;20100;-77
2023/12/29 02:23:08;;;;;;;0.68;0.65;;;;;;;;;;5038482;28;20099;-77
2023/12/29 02:25:34;;;;;;;0.95;0.65;;;;;;;;;;5040721;28;20030;-77
2023/12/29 02:28:03;;;;;;;0.50;0.50;;;;;;;;;;5038718;28;20534;-77
2023/12/29 02:30:35;;;;;;;0.55;0.50;;;;;;;;;;5024540;28;20097;-79
2023/12/29 02:33:02;;;;;;;0.50;0.50;;;;;;;;;;5043909;28;20029;-79
2023/12/29 02:35:29;;;;;;;0.40;0.40;;;;;;;;;;5037787;28;20084;-78
2023/12/29 02:37:59;;;;;;;0.40;0.38;;;;;;;;;;5019049;28;20053;-78
2023/12/29 02:40:26;;;;;;;0.65;0.40;;;;;;;;;;5036558;28;20030;-78
2023/12/29 02:42:52;;;;;;;0.40;0.40;;;;;;;;;;5045833;28;20005;-79
2023/12/29 02:45:18;;;;;;;0.77;0.60;;;;;;;;;;5043818;28;20030;-78
2023/12/29 02:47:44;;;;;;;0.43;0.43;;;;;;;;;;5042060;28;20030;-79
2023/12/29 02:50:11;;;;;;;0.68;0.32;;;;;;;;;;5042016;28;20030;-78
2023/12/29 02:52:37;;;;;;;0.57;0.30;;;;;;;;;;5037198;28;20445;-78
2023/12/29 02:55:03;;;;;;;0.50;0.45;;;;;;;;;;5025669;28;20030;-78
2023/12/29 02:57:30;;;;;;;0.47;0.45;;;;;;;;;;5047996;28;20084;-78
2023/12/29 02:59:56;;;;;;;1.60;0.68;;;;;;;;;;5043539;28;20022;-79
2023/12/29 03:02:22;;;;;;;0.30;0.30;;;;;;;;;;5035553;28;20034;-79
2023/12/29 03:04:48;;;;;;;0.75;0.52;;;;;;;;;;5039078;28;20057;-79
2023/12/29 03:07:15;;;;;;;0.30;0.30;;;;;;;;;;5040297;28;20029;-78
2023/12/29 03:09:41;;;;;;;0.30;0.30;;;;;;;;;;5038042;28;20108;-78
2023/12/29 03:12:07;;;;;;;0.35;0.35;;;;;;;;;;5036107;28;20029;-77
2023/12/29 03:14:33;;;;;;;0.47;0.47;;;;;;;;;;5037992;28;20037;-78
2023/12/29 03:16:59;;;;;;;0.63;0.30;;;;;;;;;;5027614;28;20036;-78
2023/12/29 03:19:26;;;;;;;0.40;0.40;;;;;;;;;;5032341;28;20030;-78
2023/12/29 03:21:53;;;;;;;0.43;0.43;;;;;;;;;;5033871;28;20029;-77
2023/12/29 03:24:20;;;;;;;0.50;0.50;;;;;;;;;;5035723;28;20029;-77
2023/12/29 03:26:46;;;;;;;0.30;0.30;;;;;;;;;;5033628;28;20033;-78
2023/12/29 03:29:12;;;;;;;0.45;0.38;;;;;;;;;;5033571;28;20029;-78
2023/12/29 03:31:39;;;;;;;0.30;0.30;;;;;;;;;;5033091;28;20026;-77
2023/12/29 03:34:05;;;;;;;0.50;0.35;;;;;;;;;;5038415;28;20049;-78
2023/12/29 03:36:31;;;;;;;0.20;0.20;;;;;;;;;;5044967;28;20032;-78
2023/12/29 03:38:58;;;;;;;0.30;0.30;;;;;;;;;;5041378;28;20032;-78
2023/12/29 03:41:24;;;;;;;0.20;0.20;;;;;;;;;;5040052;28;20045;-78
2023/12/29 03:43:50;;;;;;;0.20;0.20;;;;;;;;;;5041470;28;20048;-78
2023/12/29 03:46:20;;;;;;;0.40;0.40;;;;;;;;;;5049008;28;20036;-78
2023/12/29 03:48:46;;;;;;;0.40;0.40;;;;;;;;;;5043423;28;20183;-78
2023/12/29 03:51:12;;;;;;;0.38;0.38;;;;;;;;;;5042684;28;20040;-76
2023/12/29 03:53:38;;;;;;;0.47;0.30;;;;;;;;;;5042184;28;20022;-76
2023/12/29 03:56:05;;;;;;;0.40;0.25;;;;;;;;;;5032102;28;20052;-77
2023/12/29 03:58:31;;;;;;;0.63;0.52;;;;;;;;;;5045905;28;20030;-77
2023/12/29 04:00:57;;;;;;;0.40;0.40;;;;;;;;;;5033167;28;20014;-77
2023/12/29 04:03:23;;;;;;;0.32;0.32;;;;;;;;;;5041354;28;20021;-78
2023/12/29 04:05:49;;;;;;;1.17;0.30;;;;;;;;;;5034184;28;20025;-77
2023/12/29 04:08:15;;;;;;;0.70;0.32;;;;;;;;;;5040727;28;20044;-77
2023/12/29 04:10:42;;;;;;;0.50;0.50;;;;;;;;;;5043757;28;20507;-77
2023/12/29 04:13:08;;;;;;;0.45;0.45;;;;;;;;;;5039511;28;20049;-77
2023/12/29 04:15:34;;;;;;;1.50;0.70;;;;;;;;;;5035866;28;20038;-78
2023/12/29 04:18:00;;;;;;;0.68;0.68;;;;;;;;;;5026566;28;20050;-78
2023/12/29 04:20:26;;;;;;;0.65;0.47;;;;;;;;;;5040607;28;20040;-78
2023/12/29 04:22:53;;;;;;;0.57;0.57;;;;;;;;;;5036726;28;20152;-77
2023/12/29 04:25:19;;;;;;;0.93;0.60;;;;;;;;;;5045077;28;20021;-78
2023/12/29 04:27:45;;;;;;;0.50;0.50;;;;;;;;;;5048126;28;20136;-78
2023/12/29 04:30:11;;;;;;;1.48;0.65;;;;;;;;;;5037133;28;20036;-77
2023/12/29 04:32:37;;;;;;;0.60;0.60;;;;;;;;;;5034432;28;20476;-77
2023/12/29 04:35:04;;;;;;;0.60;0.60;;;;;;;;;;5026664;28;20032;-77
2023/12/29 04:37:30;;;;;;;0.73;0.73;;;;;;;;;;5025003;28;20164;-78
2023/12/29 04:39:56;;;;;;;0.50;0.50;;;;;;;;;;5033817;28;20024;-78
2023/12/29 04:42:22;;;;;;;0.90;0.60;;;;;;;;;;5036196;28;20030;-77
2023/12/29 04:44:48;;;;;;;0.68;0.60;;;;;;;;;;5041181;28;20041;-78
2023/12/29 04:47:14;;;;;;;0.60;0.60;;;;;;;;;;5050243;28;20082;-78
2023/12/29 04:49:40;;;;;;;0.50;0.50;;;;;;;;;;5046982;28;20030;-78
2023/12/29 04:52:06;;;;;;;0.52;0.45;;;;;;;;;;5048603;28;20050;-77
2023/12/29 04:54:32;;;;;;;0.60;0.60;;;;;;;;;;5030014;28;20030;-78
2023/12/29 04:56:58;;;;;;;0.60;0.50;;;;;;;;;;5046035;28;20032;-78
2023/12/29 04:59:24;;;;;;;0.65;0.65;;;;;;;;;;5045382;28;20040;-79
2023/12/29 05:01:51;;;;;;;1.13;0.70;;;;;;;;;;5039921;28;20037;-77
2023/12/29 05:04:17;;;;;;;1.83;1.20;;;;;;;;;;5028082;28;20030;-78
2023/12/29 05:06:43;;;;;;;1.20;1.08;;;;;;;;;;5045354;28;20170;-76
2023/12/29 05:09:09;;;;;;;0.82;0.82;;;;;;;;;;5044741;28;20514;-78
2023/12/29 05:11:35;;;;;;;1.02;0.95;;;;;;;;;;5040816;28;20121;-77
2023/12/29 05:14:01;;;;;;;1.10;0.98;;;;;;;;;;5046599;28;20025;-78
2023/12/29 05:16:27;;;;;;;0.60;0.60;;;;;;;;;;5039220;28;20041;-78
2023/12/29 05:18:53;;;;;;;0.98;0.73;;;;;;;;;;5039349;28;20093;-77
2023/12/29 05:21:20;;;;;;;1.30;0.90;;;;;;;;;;5033913;28;20024;-78
2023/12/29 05:23:47;;;;;;;1.17;1.08;;;;;;;;;;5047804;28;20018;-77
2023/12/29 05:26:14;;;;;;;1.30;1.10;;;;;;;;;;5039217;28;20034;-77
2023/12/29 05:28:41;;;;;;;1.10;1.00;;;;;;;;;;5032615;28;20030;-78
2023/12/29 05:31:07;;;;;;;1.63;1.23;;;;;;;;;;5033369;28;20026;-77
2023/12/29 05:33:33;;;;;;;1.20;1.10;;;;;;;;;;5030457;28;20038;-77
2023/12/29 05:36:00;;;;;;;1.30;0.90;;;;;;;;;;5034307;28;20034;-78
2023/12/29 05:38:26;;;;;;;1.58;0.98;;;;;;;;;;5023640;28;20036;-76
2023/12/29 05:40:52;;;;;;;0.82;0.77;;;;;;;;;;5032885;28;20022;-77
2023/12/29 05:43:19;;;;;;;1.75;1.05;;;;;;;;;;5028658;28;20033;-77
2023/12/29 05:45:45;;;;;;;0.85;0.80;;;;;;;;;;5033434;28;20048;-77
2023/12/29 05:48:11;;;;;;;1.63;1.25;;;;;;;;;;5035320;28;20030;-77
2023/12/29 05:50:38;;;;;;;0.63;0.63;;;;;;;;;;5041646;28;20021;-78
2023/12/29 05:53:05;;;;;;;1.77;1.02;;;;;;;;;;5043117;28;20021;-78
2023/12/29 05:55:31;;;;;;;1.58;0.90;;;;;;;;;;5037773;28;20047;-78
2023/12/29 05:57:57;;;;;;;0.85;0.77;;;;;;;;;;5038088;28;20024;-79
2023/12/29 06:00:23;;;;;;;1.65;0.82;;;;;;;;;;5047084;28;20044;-78
2023/12/29 06:02:49;;;;;;;0.98;0.70;;;;;;;;;;5041799;28;20018;-78
2023/12/29 06:05:16;;;;;;;1.42;1.10;;;;;;;;;;5046575;28;20094;-77
2023/12/29 06:07:42;;;;;;;2.55;0.93;;;;;;;;;;5035180;28;20055;-77
2023/12/29 06:10:11;;;;;;;1.15;1.05;;;;;;;;;;5024948;28;20037;-77
2023/12/29 06:12:37;;;;;;;1.25;1.10;;;;;;;;;;5033720;28;20117;-78
2023/12/29 06:15:04;;;;;;;0.98;0.98;;;;;;;;;;5035230;28;20030;-78
2023/12/29 06:17:30;;;;;;;0.77;0.75;;;;;;;;;;5030253;28;20026;-78
2023/12/29 06:19:56;;;;;;;1.15;0.80;;;;;;;;;;5040482;28;20053;-78
2023/12/29 06:22:22;;;;;;;0.93;0.90;;;;;;;;;;5021382;28;20129;-77
2023/12/29 06:24:48;;;;;;;0.77;0.77;;;;;;;;;;5027180;28;20026;-77
2023/12/29 06:27:14;;;;;;;0.65;0.60;;;;;;;;;;5037229;28;20040;-77
2023/12/29 06:29:42;;;;;;;0.60;0.60;;;;;;;;;;5040816;28;20056;-78
2023/12/29 06:32:10;;;;;;;1.20;1.10;;;;;;;;;;5045334;28;20064;-77
2023/12/29 06:34:37;;;;;;;1.58;1.00;;;;;;;;;;5035505;28;20044;-78
2023/12/29 06:37:03;;;;;;;1.65;1.05;;;;;;;;;;5038934;28;20086;-78
2023/12/29 06:39:29;;;;;;;1.10;1.00;;;;;;;;;;5034859;28;20036;-77
2023/12/29 06:41:55;;;;;;;1.50;0.95;;;;;;;;;;5036557;28;20025;-78
2023/12/29 06:44:21;;;;;;;1.45;1.10;;;;;;;;;;5034078;28;20057;-77
2023/12/29 06:46:47;;;;;;;2.15;1.00;;;;;;;;;;5025992;28;20044;-78
2023/12/29 06:49:14;;;;;;;1.08;0.98;;;;;;;;;;5027298;28;20021;-77
2023/12/29 06:51:40;;;;;;;0.80;0.80;;;;;;;;;;5032133;28;20036;-77
2023/12/29 06:54:07;;;;;;;1.83;1.10;;;;;;;;;;5034246;28;20026;-77
2023/12/29 06:56:33;;;;;;;0.63;0.63;;;;;;;;;;5022291;28;20415;-77
2023/12/29 06:58:59;;;;;;;1.90;0.80;;;;;;;;;;5025734;28;20028;-78
2023/12/29 07:01:25;;;;;;;0.95;0.85;;;;;;;;;;5045444;28;20030;-79
2023/12/29 07:03:51;;;;;;;2.15;1.05;;;;;;;;;;5036314;28;20029;-77
2023/12/29 07:06:18;;;;;;;1.15;1.00;;;;;;;;;;5042708;28;20026;-77
2023/12/29 07:08:44;;;;;;;1.55;0.70;;;;;;;;;;5032120;28;20109;-77
2023/12/29 07:11:11;;;;;;;1.90;0.88;;;;;;;;;;5026820;28;20021;-77
2023/12/29 07:13:37;;;;;;;1.33;1.05;;;;;;;;;;5033399;28;20096;-77
2023/12/29 07:16:03;;;;;;;2.42;1.00;;;;;;;;;;5030650;28;20461;-77
2023/12/29 07:18:30;;;;;;;1.13;0.90;;;;;;;;;;5029264;28;20033;-77
2023/12/29 07:20:56;;;;;;;1.17;0.95;;;;;;;;;;5034559;28;20032;-77
2023/12/29 07:23:22;;;;;;;1.63;0.80;;;;;;;;;;5048462;28;20086;-77
2023/12/29 07:25:49;;;;;;;1.92;0.95;;;;;;;;;;5040967;28;20044;-77
2023/12/29 07:28:15;;;;;;;1.30;0.90;;;;;;;;;;5053215;28;20050;-78
2023/12/29 07:30:41;;;;;;;1.02;0.70;;;;;;;;;;5045037;28;20473;-77
2023/12/29 07:33:07;;;;;;;1.15;0.90;;;;;;;;;;5037164;28;20033;-77
2023/12/29 07:35:33;;;;;;;1.00;0.90;;;;;;;;;;5034244;28;20383;-77
2023/12/29 07:37:59;;;;;;;1.27;1.00;;;;;;;;;;5035749;28;20033;-78
2023/12/29 07:40:26;;;;;;;1.02;0.98;;;;;;;;;;5041970;28;20036;-76
2023/12/29 07:42:52;;;;;;;0.90;0.70;;;;;;;;;;5051529;28;20029;-77
2023/12/29 07:45:18;;;;;;;3.40;1.17;;;;;;;;;;5037475;28;20026;-76
2023/12/29 07:47:44;;;;;;;1.55;0.90;;;;;;;;;;5036750;28;20044;-78
2023/12/29 07:50:11;;;;;;;0.95;0.63;;;;;;;;;;5042740;28;20093;-77
2023/12/29 07:52:37;;;;;;;1.00;0.90;;;;;;;;;;5032264;28;20115;-78
2023/12/29 07:55:03;;;;;;;0.63;0.63;;;;;;;;;;5048455;28;20065;-77
2023/12/29 07:57:29;;;;;;;1.50;0.85;;;;;;;;;;5057836;28;20380;-78
2023/12/29 07:59:56;;;;;;;1.17;0.95;;;;;;;;;;5045877;28;20147;-78
2023/12/29 08:02:22;;;;;;;0.75;0.70;;;;;;;;;;5044261;28;20092;-77
2023/12/29 08:04:48;;;;;;;1.30;0.90;;;;;;;;;;5056076;28;20048;-78
2023/12/29 08:07:14;;;;;;;1.17;0.98;;;;;;;;;;5039388;28;20090;-78
2023/12/29 08:09:41;;;;;;;1.52;1.08;;;;;;;;;;5048217;28;20041;-78
2023/12/29 08:12:07;;;;;;;1.20;1.02;;;;;;;;;;5049447;28;20057;-76
2023/12/29 08:14:33;;;;;;;3.60;0.80;;;;;;;;;;5056836;28;20017;-78
2023/12/29 08:16:59;;;;;;;1.00;0.93;;;;;;;;;;5047952;28;20026;-78
2023/12/29 08:19:25;;;;;;;2.05;1.20;;;;;;;;;;5041425;28;20080;-77
2023/12/29 08:21:51;;;;;;;1.42;1.10;;;;;;;;;;5048197;28;20034;-78
2023/12/29 08:24:19;;;;;;;2.70;1.25;;;;;;;;;;5051072;28;20034;-78
2023/12/29 08:26:46;;;;;;;1.70;1.13;;;;;;;;;;5040786;28;20017;-78
2023/12/29 08:29:12;;;;;;;1.92;1.02;;;;;;;;;;5034832;28;20026;-76
2023/12/29 08:31:38;;;;;;;2.38;1.15;;;;;;;;;;5033210;28;20033;-78
2023/12/29 08:34:04;;;;;;;1.23;1.00;;;;;;;;;;5036169;28;20045;-77
2023/12/29 08:36:30;;;;;;;1.08;0.93;;;;;;;;;;5035612;28;20025;-78
2023/12/29 08:38:56;;;;;;;2.53;1.02;;;;;;;;;;5027052;28;20032;-78
2023/12/29 08:41:23;;;;;;;1.48;0.95;;;;;;;;;;5022109;28;20101;-78
2023/12/29 08:43:49;;;;;;;1.00;1.00;;;;;;;;;;5042739;28;20022;-78
2023/12/29 08:46:15;;;;;;;3.80;1.48;;;;;;;;;;5044974;28;20029;-77
2023/12/29 08:48:41;;;;;;;1.98;1.15;;;;;;;;;;5026705;28;20047;-78
2023/12/29 08:51:07;;;;;;;2.47;1.02;;;;;;;;;;5039435;28;20056;-77
2023/12/29 08:53:35;;;;;;;2.25;1.00;;;;;;;;;;5030630;28;20076;-77
2023/12/29 08:56:02;;;;;;;3.00;1.30;;;;;;;;;;5029162;28;20033;-78
2023/12/29 08:58:28;;;;;;;2.47;1.23;;;;;;;;;;5029415;28;20044;-77
2023/12/29 09:00:54;;;;;;;2.88;1.38;;;;;;;;;;5035955;28;20037;-78
2023/12/29 09:03:20;;;;;;;2.53;1.80;;;;;;;;;;5038805;28;20044;-78
2023/12/29 09:05:47;;;;;;;3.53;1.50;;;;;;;;;;5042200;28;20018;-78
2023/12/29 09:08:13;;;;;;;2.47;1.27;;;;;;;;;;5035935;28;20014;-77
2023/12/29 09:10:40;;;;;;;1.38;0.95;;;;;;;;;;5043735;28;20045;-78
2023/12/29 09:13:06;;;;;;;1.45;1.10;;;;;;;;;;5039479;28;20026;-79
2023/12/29 09:15:34;;;;;;;1.13;0.98;;;;;;;;;;5050857;28;20036;-78
2023/12/29 09:18:00;;;;;;;1.10;1.00;;;;;;;;;;5043558;28;20026;-78
2023/12/29 09:20:26;;;;;;;2.25;1.05;;;;;;;;;;5034587;28;20087;-78
2023/12/29 09:22:53;;;;;;;1.30;1.05;;;;;;;;;;5042006;28;20073;-78
2023/12/29 09:25:19;;;;;;;3.15;1.30;;;;;;;;;;5034442;28;20018;-79
2023/12/29 09:27:47;;;;;;;3.10;1.50;;;;;;;;;;5032733;28;20052;-78
2023/12/29 09:30:14;;;;;;;1.30;1.20;;;;;;;;;;5036094;28;20067;-77
2023/12/29 09:32:40;;;;;;;1.20;1.10;;;;;;;;;;5040560;28;20506;-78
2023/12/29 09:35:06;;;;;;;1.13;1.00;;;;;;;;;;5043600;28;20030;-79
2023/12/29 09:37:32;;;;;;;0.55;0.52;;;;;;;;;;5026144;28;20021;-78
2023/12/29 09:39:58;;;;;;;1.50;0.93;;;;;;;;;;5033776;28;20089;-76
2023/12/29 09:42:26;;;;;;;3.35;1.60;;;;;;;;;;5035098;28;20089;-78
2023/12/29 09:44:52;;;;;;;4.97;1.55;;;;;;;;;;5025516;28;20029;-77
2023/12/29 09:47:25;;;;;;;2.17;1.25;;;;;;;;;;5048134;28;20022;-78
2023/12/29 09:49:55;;;;;;;2.15;1.20;;;;;;;;;;5040720;28;20033;-78
2023/12/29 09:52:22;;;;;;;1.25;1.00;;;;;;;;;;5044856;28;20022;-79
2023/12/29 09:54:50;;;;;;;0.80;0.77;;;;;;;;;;5066989;23;20053;-80
2023/12/29 09:57:18;;;;;;;1.33;1.15;;;;;;;;;;5061681;28;20581;-81
2023/12/29 09:59:44;;;;;;;1.48;1.10;;;;;;;;;;5060434;28;20024;-80
2023/12/29 10:02:18;;;;;;;1.23;0.73;;;;;;;;;;5061092;28;20036;-80
2023/12/29 10:04:44;;;;;;;1.38;0.98;;;;;;;;;;5052757;28;20018;-80
2023/12/29 10:07:17;;;;;;;1.83;1.20;;;;;;;;;;5032312;28;20029;-82
2023/12/29 10:09:45;;;;;;;1.10;1.00;;;;;;;;;;5031456;28;20006;-81
2023/12/29 10:12:11;;;;;;;1.73;1.05;;;;;;;;;;5040111;28;20026;-81
2023/12/29 10:14:44;;;;;;;0.70;0.70;;;;;;;;;;5043406;28;20044;-81
2023/12/29 10:17:17;;;;;;;1.02;0.82;;;;;;;;;;5047913;28;20033;-80
2023/12/29 10:19:50;;;;;;;1.65;0.90;;;;;;;;;;5026905;28;20037;-79
2023/12/29 10:22:22;;;;;;;0.90;0.70;;;;;;;;;;5034063;28;20022;-81
2023/12/29 10:24:49;;;;;;;2.08;0.90;;;;;;;;;;5037609;28;20041;-80
2023/12/29 10:27:15;;;;;;;1.38;0.88;;;;;;;;;;5041175;28;20065;-80
2023/12/29 10:29:41;;;;;;;1.45;1.02;;;;;;;;;;5035652;28;20021;-81
2023/12/29 10:32:09;;;;;;;0.93;0.73;;;;;;;;;;5041139;28;20029;-80
2023/12/29 10:34:35;;;;;;;0.98;0.90;;;;;;;;;;5038185;28;20017;-80
2023/12/29 10:37:09;;;;;;;1.08;0.98;;;;;;;;;;5043188;28;20026;-81
2023/12/29 10:39:38;;;;;;;1.42;0.70;;;;;;;;;;5043665;28;20060;-80
2023/12/29 10:42:05;;;;;;;1.05;0.70;;;;;;;;;;5031492;28;20017;-81
2023/12/29 10:44:32;;;;;;;1.10;0.80;;;;;;;;;;5044163;28;20026;-81
2023/12/29 10:46:58;;;;;;;0.85;0.75;;;;;;;;;;5047521;28;20031;-81
2023/12/29 10:49:24;;;;;;;0.70;0.70;;;;;;;;;;5041763;28;20045;-81
2023/12/29 10:51:50;;;;;;;0.93;0.70;;;;;;;;;;5035027;28;20095;-81
2023/12/29 10:54:23;;;;;;;0.88;0.70;;;;;;;;;;5034588;28;20029;-80
2023/12/29 10:57:10;;;;;;;0.73;0.60;;;;;;;;;;5037606;28;20032;-80
2023/12/29 10:59:36;;;;;;;0.95;0.80;;;;;;;;;;5036355;28;20082;-80
2023/12/29 11:02:05;;;;;;;0.75;0.75;;;;;;;;;;5031093;28;20145;-81
2023/12/29 11:04:31;;;;;;;0.65;0.63;;;;;;;;;;5033228;28;20518;-80
2023/12/29 11:06:57;;;;;;;1.15;0.60;;;;;;;;;;5046632;28;20553;-81
2023/12/29 11:09:30;;;;;;;1.95;0.82;;;;;;;;;;5047620;28;20014;-81
2023/12/29 11:12:00;;;;;;;1.33;0.70;;;;;;;;;;5046616;28;20060;-80
2023/12/29 11:14:28;;;;;;;0.85;0.75;;;;;;;;;;5041653;28;20116;-81
2023/12/29 11:16:55;;;;;;;2.58;0.93;;;;;;;;;;5038962;28;20049;-80
2023/12/29 11:19:21;;;;;;;0.90;0.90;;;;;;;;;;5049780;28;20014;-80
2023/12/29 11:21:49;;;;;;;4.75;1.13;;;;;;;;;;5041580;28;20490;-81
2023/12/29 11:24:15;;;;;;;0.73;0.73;;;;;;;;;;5035205;28;20385;-81
2023/12/29 11:26:42;;;;;;;1.58;0.80;;;;;;;;;;5046388;28;20043;-80
2023/12/29 11:29:09;;;;;;;0.75;0.75;;;;;;;;;;5041564;28;20029;-80
2023/12/29 11:31:35;;;;;;;2.25;0.95;;;;;;;;;;5037843;28;20033;-80
2023/12/29 11:34:06;;;;;;;2.03;0.88;;;;;;;;;;5040795;28;20025;-81
2023/12/29 11:36:35;;;;;;;1.50;1.05;;;;;;;;;;5041209;28;20132;-80
2023/12/29 11:39:20;;;;;;;0.93;0.73;;;;;;;;;;5035014;28;20052;-79
2023/12/29 11:41:50;;;;;;;0.93;0.80;;;;;;;;;;5036784;28;20089;-79
2023/12/29 11:44:29;;;;;;;0.95;0.68;;;;;;;;;;5046713;28;20017;-80
2023/12/29 11:47:00;;;;;;;1.10;0.70;;;;;;;;;;5042413;28;20049;-81
2023/12/29 11:49:26;;;;;;;1.30;0.90;;;;;;;;;;5043784;28;20025;-79
2023/12/29 11:51:52;;;;;;;0.68;0.68;;;;;;;;;;5039524;28;20029;-81
2023/12/29 11:54:36;;;;;;;0.70;0.70;;;;;;;;;;5038249;28;20033;-80
2023/12/29 11:57:02;;;;;;;0.80;0.68;;;;;;;;;;5038691;28;20029;-81
2023/12/29 11:59:28;;;;;;;1.08;0.73;;;;;;;;;;5039607;28;20026;-80
2023/12/29 12:01:56;;;;;;;1.27;0.85;;;;;;;;;;5046491;28;20032;-81
2023/12/29 12:04:40;;;;;;;0.60;0.60;;;;;;;;;;5039497;28;20092;-81
2023/12/29 12:07:07;;;;;;;1.35;0.90;;;;;;;;;;5041068;28;20091;-82
2023/12/29 12:09:34;;;;;;;1.67;1.10;;;;;;;;;;5043840;28;20026;-81
2023/12/29 12:12:02;;;;;;;1.88;1.10;;;;;;;;;;5041366;28;20041;-81
2023/12/29 12:14:55;;;;;;;1.27;0.73;;;;;;;;;;5048809;28;20029;-80
2023/12/29 12:17:34;;;;;;;1.70;0.85;;;;;;;;;;5040800;28;20037;-80
2023/12/29 12:20:02;;;;;;;0.73;0.70;;;;;;;;;;5044499;28;20021;-80
2023/12/29 12:22:30;;;;;;;0.70;0.70;;;;;;;;;;5041577;28;20021;-82
2023/12/29 12:24:58;;;;;;;1.75;0.70;;;;;;;;;;5052971;28;20124;-81
2023/12/29 12:27:26;;;;;;;0.82;0.60;;;;;;;;;;5040287;28;20006;-81
2023/12/29 12:29:59;;;;;;;1.35;1.00;;;;;;;;;;5053080;28;20024;-80
2023/12/29 12:32:28;;;;;;;0.90;0.70;;;;;;;;;;5049754;28;20018;-80
2023/12/29 12:34:55;;;;;;;1.13;0.82;;;;;;;;;;5047945;28;20087;-80
2023/12/29 12:37:21;;;;;;;0.82;0.75;;;;;;;;;;5038176;28;20117;-80
2023/12/29 12:39:48;;;;;;;1.13;0.90;;;;;;;;;;5041486;28;20044;-81
2023/12/29 12:42:14;;;;;;;1.08;0.80;;;;;;;;;;5040367;28;20033;-80
2023/12/29 12:44:41;;;;;;;0.98;0.90;;;;;;;;;;5032928;28;20053;-80
2023/12/29 12:47:09;;;;;;;0.95;0.73;;;;;;;;;;5038176;28;20444;-80
2023/12/29 12:49:35;;;;;;;2.00;0.75;;;;;;;;;;5050466;28;20093;-80
2023/12/29 12:52:02;;;;;;;1.25;1.00;;;;;;;;;;5031213;28;20025;-80
2023/12/29 12:54:28;;;;;;;1.60;0.82;;;;;;;;;;5041229;28;20089;-81
2023/12/29 12:56:55;;;;;;;0.90;0.73;;;;;;;;;;5045875;28;20483;-81
2023/12/29 12:59:21;;;;;;;1.77;0.90;;;;;;;;;;5038971;28;20063;-80
2023/12/29 13:01:48;;;;;;;1.30;0.68;;;;;;;;;;5049299;28;20055;-80
2023/12/29 13:04:15;;;;;;;1.02;0.77;;;;;;;;;;5046706;28;20121;-80
2023/12/29 13:06:42;;;;;;;1.58;0.90;;;;;;;;;;5040617;28;20536;-81
2023/12/29 13:09:11;;;;;;;1.75;0.85;;;;;;;;;;5031516;28;20025;-80
2023/12/29 13:11:37;;;;;;;1.02;0.70;;;;;;;;;;5049159;28;20040;-80
2023/12/29 13:14:04;;;;;;;0.73;0.73;;;;;;;;;;5038296;28;20116;-81
2023/12/29 13:16:31;;;;;;;1.42;0.77;;;;;;;;;;5039319;28;20032;-81
2023/12/29 13:18:57;;;;;;;1.60;0.85;;;;;;;;;;5046020;28;20040;-81
2023/12/29 13:21:24;;;;;;;0.57;0.50;;;;;;;;;;5029784;28;20073;-80
2023/12/29 13:23:51;;;;;;;1.67;0.77;;;;;;;;;;5040476;28;20105;-80
2023/12/29 13:26:20;;;;;;;1.08;0.80;;;;;;;;;;5047170;28;20009;-81
2023/12/29 13:28:46;;;;;;;5.03;2.25;;;;;;;;;;5050870;28;20017;-82
2023/12/29 13:31:14;;;;;;;1.95;0.90;;;;;;;;;;5028657;28;20049;-80
2023/12/29 13:33:58;;;;;;;1.25;0.82;;;;;;;;;;5037994;28;20040;-82
2023/12/29 13:36:43;;;;;;;0.80;0.80;;;;;;;;;;5035481;28;20041;-80
2023/12/29 13:39:29;;;;;;;1.40;0.90;;;;;;;;;;5039393;28;20022;-80
2023/12/29 13:41:56;;;;;;;3.53;0.80;;;;;;;;;;5031527;28;20093;-81
2023/12/29 13:44:23;;;;;;;1.75;1.15;;;;;;;;;;5040226;28;20021;-80
2023/12/29 13:46:50;;;;;;;1.00;0.68;;;;;;;;;;5039793;28;20021;-81
2023/12/29 13:49:17;;;;;;;0.70;0.70;;;;;;;;;;5048838;28;20056;-81
2023/12/29 13:51:43;;;;;;;2.00;0.50;;;;;;;;;;5042978;28;20109;-81
2023/12/29 13:54:09;;;;;;;0.75;0.75;;;;;;;;;;5050068;28;20037;-81
2023/12/29 13:56:35;;;;;;;0.80;0.80;;;;;;;;;;5041516;28;20487;-81
2023/12/29 13:59:05;;;;;;;2.28;0.70;;;;;;;;;;5039757;28;20087;-79
2023/12/29 14:01:37;;;;;;;1.20;0.80;;;;;;;;;;5039083;28;20033;-80
2023/12/29 14:04:03;;;;;;;;;;;;;;;;;;5040364;28;20049;-80
2023/12/29 14:06:32;;;;;;;2.15;0.70;;;;;;;;;;5041107;28;19916;-82
2023/12/29 14:08:58;;;;;;;1.50;0.75;;;;;;;;;;5028013;28;20483;-81
2023/12/29 14:11:24;;;;;;;1.02;0.60;;;;;;;;;;5041759;28;20032;-80
2023/12/29 14:13:51;;;;;;;1.08;0.80;;;;;;;;;;5032793;28;20037;-81
2023/12/29 14:16:20;;;;;;;1.02;0.77;;;;;;;;;;5043881;28;20041;-81
2023/12/29 14:18:46;;;;;;;0.75;0.60;;;;;;;;;;5039612;28;20018;-81
2023/12/29 14:21:29;;;;;;;0.63;0.50;;;;;;;;;;5049832;28;20017;-80
2023/12/29 14:24:02;;;;;;;0.90;0.70;;;;;;;;;;5043109;28;20020;-79
2023/12/29 14:26:29;;;;;;;0.60;0.60;;;;;;;;;;5042906;28;20064;-82
2023/12/29 14:29:06;;;;;;;1.35;0.70;;;;;;;;;;5047915;28;20035;-79
2023/12/29 14:31:34;;;;;;;0.90;0.80;;;;;;;;;;5034814;28;20024;-81
2023/12/29 14:34:00;;;;;;;1.40;1.00;;;;;;;;;;5031210;28;20022;-81
2023/12/29 14:36:27;;;;;;;1.67;0.50;;;;;;;;;;5028239;28;20017;-81
2023/12/29 14:38:53;;;;;;;1.42;0.68;;;;;;;;;;5031288;28;20033;-79
2023/12/29 14:41:19;;;;;;;0.93;0.80;;;;;;;;;;5038883;28;20015;-81
2023/12/29 14:43:45;;;;;;;0.50;0.50;;;;;;;;;;5031750;28;20020;-80